createdAt,value
2022-11-30T00:01:20.041Z,-0.46
2022-11-30T00:03:56.154Z,-0.46
2022-11-30T00:06:24.256Z,-0.45
2022-11-30T00:09:16.392Z,-0.44
2022-11-30T00:12:33.315Z,-0.45
2022-11-30T00:15:03.650Z,-0.44
2022-11-30T00:17:30.593Z,-0.45
2022-11-30T00:19:57.436Z,-0.51
2022-11-30T00:22:32.204Z,-0.59
2022-11-30T00:25:04.025Z,-0.65
2022-11-30T00:27:32.289Z,-0.67
2022-11-30T00:29:59.902Z,-0.68
2022-11-30T00:32:28.248Z,-0.67
2022-11-30T00:35:03.388Z,-0.70
2022-11-30T00:37:31.146Z,-0.72
2022-11-30T00:40:05.614Z,-0.73
2022-11-30T00:42:32.528Z,-0.73
2022-11-30T00:44:59.410Z,-0.74
2022-11-30T00:47:26.198Z,-0.74
2022-11-30T00:49:53.594Z,-0.74
2022-11-30T00:52:25.047Z,-0.73
2022-11-30T00:54:52.167Z,-0.73
2022-11-30T00:57:22.226Z,-0.73
2022-11-30T00:59:49.189Z,-0.73
2022-11-30T01:02:17.644Z,-0.75
2022-11-30T01:04:47.097Z,-0.79
2022-11-30T01:07:16.542Z,-0.80
2022-11-30T01:09:43.719Z,-0.83
2022-11-30T01:12:13.175Z,-0.87
2022-11-30T01:14:40.090Z,-0.89
2022-11-30T01:17:06.934Z,-0.94
2022-11-30T01:19:33.609Z,-0.97
2022-11-30T01:22:00.294Z,-1.00
2022-11-30T01:24:26.953Z,-1.01
2022-11-30T01:26:53.570Z,-1.02
2022-11-30T01:29:20.169Z,-1.03
2022-11-30T01:31:46.871Z,-1.06
2022-11-30T01:34:13.669Z,-1.07
2022-11-30T01:36:40.437Z,-1.08
2022-11-30T01:39:08.831Z,-1.09
2022-11-30T01:41:36.180Z,-1.10
2022-11-30T01:44:05.233Z,-1.10
2022-11-30T01:46:39.981Z,-1.11
2022-11-30T01:49:10.060Z,-1.11
2022-11-30T01:51:42.323Z,-1.11
2022-11-30T01:54:14.471Z,-1.12
2022-11-30T01:56:46.871Z,-1.11
2022-11-30T01:59:14.904Z,-1.10
2022-11-30T02:01:42.196Z,-1.11
2022-11-30T02:04:22.166Z,-1.15
2022-11-30T02:06:49.138Z,-1.18
2022-11-30T02:09:43.594Z,-1.21
2022-11-30T02:12:25.496Z,-1.25
2022-11-30T02:15:27.124Z,-1.28
2022-11-30T02:18:42.754Z,-1.36
2022-11-30T02:21:52.772Z,-1.42
2022-11-30T02:24:38.919Z,-1.46
2022-11-30T02:27:23.575Z,-1.47
2022-11-30T02:30:04.803Z,-1.46
2022-11-30T02:32:46.986Z,-1.45
2022-11-30T02:35:18.192Z,-1.46
2022-11-30T02:37:45.589Z,-1.46
2022-11-30T02:40:39.635Z,-1.46
2022-11-30T02:43:06.516Z,-1.49
2022-11-30T02:45:35.385Z,-1.54
2022-11-30T02:48:10.400Z,-1.58
2022-11-30T02:51:04.208Z,-1.59
2022-11-30T02:53:34.813Z,-1.60
2022-11-30T02:56:01.635Z,-1.64
2022-11-30T02:58:28.385Z,-1.68
2022-11-30T03:00:55.073Z,-1.67
2022-11-30T03:03:22.238Z,-1.65
2022-11-30T03:05:48.976Z,-1.64
2022-11-30T03:08:15.905Z,-1.61
2022-11-30T03:10:42.937Z,-1.59
2022-11-30T03:13:12.288Z,-1.57
2022-11-30T03:15:42.096Z,-1.57
2022-11-30T03:18:09.250Z,-1.55
2022-11-30T03:20:41.491Z,-1.55
2022-11-30T03:23:08.476Z,-1.54
2022-11-30T03:25:35.449Z,-1.52
2022-11-30T03:28:06.619Z,-1.49
2022-11-30T03:30:36.760Z,-1.46
2022-11-30T03:33:12.977Z,-1.44
2022-11-30T03:36:30.158Z,-1.41
2022-11-30T03:38:59.409Z,-1.41
2022-11-30T03:42:16.400Z,-1.41
2022-11-30T03:44:46.793Z,-1.39
2022-11-30T03:53:02.398Z,-1.35
2022-11-30T03:55:34.231Z,-1.33
2022-11-30T03:58:01.214Z,-1.31
2022-11-30T04:00:30.917Z,-1.30
2022-11-30T04:03:00.238Z,-1.27
2022-11-30T04:05:27.199Z,-1.25
2022-11-30T04:07:54.028Z,-1.22
2022-11-30T04:10:20.756Z,-1.20
2022-11-30T04:12:47.624Z,-1.17
2022-11-30T04:15:17.313Z,-1.10
2022-11-30T04:17:44.228Z,-1.04
2022-11-30T04:20:11.236Z,-1.01
2022-11-30T04:22:38.291Z,-1.00
2022-11-30T04:25:05.492Z,-1.00
2022-11-30T04:27:32.362Z,-1.01
2022-11-30T04:30:24.215Z,-1.03
2022-11-30T04:32:51.444Z,-1.04
2022-11-30T04:35:21.388Z,-1.07
2022-11-30T04:37:48.317Z,-1.10
2022-11-30T04:40:15.288Z,-1.09
2022-11-30T04:42:42.033Z,-1.08
2022-11-30T04:45:09.225Z,-1.05
2022-11-30T04:48:32.699Z,-1.04
2022-11-30T04:52:15.322Z,-1.01
2022-11-30T04:55:13.015Z,-0.98
2022-11-30T04:57:42.332Z,-0.94
2022-11-30T05:00:12.643Z,-0.92
2022-11-30T05:10:54.295Z,-0.75
2022-11-30T05:13:25.098Z,-0.72
2022-11-30T05:15:54.585Z,-0.66
2022-11-30T05:18:22.318Z,-0.61
2022-11-30T05:20:50.244Z,-0.57
2022-11-30T05:23:17.382Z,-0.54
2022-11-30T05:25:44.665Z,-0.51
2022-11-30T05:28:12.088Z,-0.48
2022-11-30T05:30:39.770Z,-0.45
2022-11-30T05:33:06.713Z,-0.44
2022-11-30T05:35:33.992Z,-0.42
2022-11-30T05:38:04.573Z,-0.40
2022-11-30T05:40:32.011Z,-0.39
2022-11-30T05:43:03.849Z,-0.39
2022-11-30T05:45:31.146Z,-0.38
2022-11-30T05:47:57.845Z,-0.38
2022-11-30T05:50:24.549Z,-0.39
2022-11-30T05:52:55.775Z,-0.38
2022-11-30T05:55:24.273Z,-0.37
2022-11-30T05:58:00.031Z,-0.36
2022-11-30T06:00:34.801Z,-0.36
2022-11-30T06:03:04.573Z,-0.36
2022-11-30T06:05:38.825Z,-0.37
2022-11-30T06:08:07.037Z,-0.35
2022-11-30T06:10:34.025Z,-0.34
2022-11-30T06:13:07.839Z,-0.34
2022-11-30T06:15:46.062Z,-0.34
2022-11-30T06:18:17.529Z,-0.33
2022-11-30T06:21:12.263Z,-0.32
2022-11-30T06:23:40.350Z,-0.28
2022-11-30T06:26:10.033Z,-0.28
2022-11-30T06:28:43.120Z,-0.25
2022-11-30T06:31:21.956Z,-0.21
2022-11-30T06:33:59.937Z,-0.13
2022-11-30T06:36:35.860Z,-0.04
2022-11-30T06:40:04.684Z,-0.02
2022-11-30T06:51:11.940Z,-0.11
2022-11-30T06:54:58.291Z,-0.04
2022-11-30T06:58:25.601Z,0.03
2022-11-30T07:00:56.326Z,0.12
2022-11-30T07:04:27.558Z,0.18
2022-11-30T07:08:18.515Z,0.26
2022-11-30T07:24:13.698Z,0.38
2022-11-30T07:26:57.976Z,0.44
2022-11-30T07:30:29.350Z,0.54
2022-11-30T07:36:50.818Z,0.71
2022-11-30T07:41:09.171Z,0.83
2022-11-30T07:46:50.418Z,1.11
2022-11-30T07:59:21.308Z,1.24
2022-11-30T08:02:53.398Z,1.33
2022-11-30T08:05:41.001Z,1.51
2022-11-30T08:08:41.397Z,1.68
2022-11-30T08:12:49.177Z,1.91
2022-11-30T08:24:02.434Z,2.44
2022-11-30T08:26:35.595Z,2.54
2022-11-30T08:29:10.205Z,2.68
2022-11-30T08:31:37.680Z,2.78
2022-11-30T08:34:11.144Z,2.84
2022-11-30T08:37:03.513Z,2.89
2022-11-30T08:39:33.379Z,2.94
2022-11-30T08:42:04.642Z,3.05
2022-11-30T08:45:02.820Z,3.11
2022-11-30T08:47:30.341Z,3.14
2022-11-30T08:50:00.409Z,3.13
2022-11-30T08:52:31.439Z,3.10
2022-11-30T08:54:58.335Z,3.12
2022-11-30T08:57:28.907Z,3.17
2022-11-30T08:59:56.181Z,3.25
2022-11-30T09:02:26.963Z,3.36
2022-11-30T09:04:54.063Z,3.43
2022-11-30T09:07:21.257Z,3.48
2022-11-30T09:09:50.710Z,3.50
2022-11-30T09:12:17.776Z,3.55
2022-11-30T09:14:54.043Z,3.62
2022-11-30T09:17:39.390Z,3.61
2022-11-30T09:20:23.904Z,3.56
2022-11-30T09:22:53.240Z,3.55
2022-11-30T09:25:55.260Z,3.55
2022-11-30T09:28:35.994Z,3.62
2022-11-30T09:31:17.148Z,3.67
2022-11-30T09:33:53.065Z,3.77
2022-11-30T09:36:32.630Z,3.83
2022-11-30T09:39:10.431Z,3.88
2022-11-30T09:42:03.774Z,3.93
2022-11-30T09:44:56.053Z,4.06
2022-11-30T09:48:11.002Z,4.15
2022-11-30T09:50:43.028Z,4.26
2022-11-30T09:53:46.803Z,4.38
2022-11-30T09:56:36.796Z,4.42
2022-11-30T09:59:30.421Z,4.38
2022-11-30T10:03:03.922Z,4.37
2022-11-30T10:06:05.127Z,4.42
2022-11-30T10:08:50.233Z,4.51
2022-11-30T10:12:26.858Z,4.61
2022-11-30T10:18:27.235Z,4.84
2022-11-30T10:21:04.945Z,4.96
2022-11-30T10:24:31.763Z,5.06
2022-11-30T10:49:29.708Z,5.11
2022-11-30T10:52:37.722Z,5.14
2022-11-30T10:59:11.806Z,5.15
2022-11-30T10:59:56.201Z,5.16
2022-11-30T11:02:55.056Z,5.24
2022-11-30T11:18:44.328Z,5.56
2022-11-30T11:21:53.857Z,5.70
2022-11-30T11:41:18.391Z,6.19
2022-11-30T11:48:37.431Z,6.35
2022-11-30T11:51:59.021Z,6.36
2022-11-30T11:54:54.275Z,6.18
2022-11-30T11:57:39.731Z,6.09
2022-11-30T12:11:37.242Z,5.88
2022-11-30T12:14:09.516Z,5.89
2022-11-30T12:16:45.267Z,5.94
2022-11-30T12:19:22.380Z,6.00
2022-11-30T12:22:04.511Z,6.07
2022-11-30T12:34:37.051Z,6.23
2022-11-30T12:38:12.138Z,6.24
2022-11-30T12:41:13.429Z,6.24
2022-11-30T12:44:30.469Z,6.25
2022-11-30T12:48:12.901Z,6.30
2022-11-30T12:51:08.378Z,6.31
2022-11-30T13:19:49.897Z,6.36
2022-11-30T13:22:57.181Z,6.41
2022-11-30T13:26:08.026Z,6.42
2022-11-30T13:28:46.794Z,6.43
2022-11-30T13:31:45.635Z,6.47
2022-11-30T13:34:46.776Z,6.45
2022-11-30T13:37:31.690Z,6.44
2022-11-30T13:40:54.164Z,6.43
2022-11-30T13:43:34.467Z,6.41
2022-11-30T13:46:15.393Z,6.36
2022-11-30T13:49:19.667Z,6.33
2022-11-30T13:51:48.139Z,6.29
2022-11-30T13:54:46.562Z,6.25
2022-11-30T13:57:24.168Z,6.21
2022-11-30T14:21:46.222Z,5.88
2022-11-30T15:09:26.962Z,5.20
2022-11-30T15:11:57.911Z,5.18
2022-11-30T15:15:41.902Z,5.18
2022-11-30T15:18:16.285Z,5.18
2022-11-30T15:26:16.993Z,5.16
2022-11-30T15:29:28.170Z,5.14
2022-11-30T15:32:29.672Z,5.11
2022-11-30T15:40:01.458Z,5.05
2022-11-30T15:43:03.704Z,5.02
2022-11-30T15:45:57.854Z,4.99
2022-11-30T15:49:41.997Z,4.96
2022-11-30T15:52:14.761Z,4.90
2022-11-30T15:54:54.316Z,4.87
2022-11-30T15:58:37.895Z,4.84
2022-11-30T16:01:23.164Z,4.79
2022-11-30T16:04:33.306Z,4.76
2022-11-30T16:07:18.582Z,4.71
2022-11-30T16:09:52.830Z,4.69
2022-11-30T16:12:29.297Z,4.66
2022-11-30T16:15:09.385Z,4.64
2022-11-30T16:18:06.523Z,4.59
2022-11-30T16:21:00.977Z,4.55
2022-11-30T16:23:57.947Z,4.52
2022-11-30T16:27:03.441Z,4.51
2022-11-30T16:30:57.152Z,4.48
2022-11-30T16:33:55.683Z,4.43
2022-11-30T16:36:50.754Z,4.40
2022-11-30T16:39:31.808Z,4.38
2022-11-30T16:42:11.765Z,4.35
2022-11-30T16:44:43.245Z,4.31
2022-11-30T16:47:21.014Z,4.26
2022-11-30T16:49:59.204Z,4.24
2022-11-30T16:52:31.506Z,4.20
2022-11-30T16:55:16.150Z,4.17
2022-11-30T16:59:16.199Z,4.12
2022-11-30T17:07:54.462Z,4.02
2022-11-30T17:11:05.776Z,3.99
2022-11-30T17:13:43.377Z,3.96
2022-11-30T17:16:35.422Z,3.93
2022-11-30T17:19:40.398Z,3.91
2022-11-30T17:26:05.734Z,3.86
2022-11-30T17:29:14.453Z,3.84
2022-11-30T17:29:32.166Z,3.89
2022-11-30T17:31:50.656Z,3.84
2022-11-30T17:34:31.091Z,3.83
2022-11-30T17:37:18.936Z,3.82
2022-11-30T17:40:59.902Z,3.81
2022-11-30T17:47:06.283Z,3.82
2022-11-30T17:47:08.676Z,3.81
2022-11-30T17:50:14.623Z,3.81
2022-11-30T17:54:06.568Z,3.80
2022-11-30T17:58:14.128Z,3.78
2022-11-30T18:01:16.300Z,3.78
2022-11-30T18:04:09.217Z,3.77
2022-11-30T18:10:53.854Z,3.74
2022-11-30T18:14:11.900Z,3.69
2022-11-30T18:30:21.558Z,3.65
2022-11-30T18:32:15.168Z,3.54
2022-11-30T18:41:46.816Z,3.36
2022-11-30T18:44:31.210Z,3.33
2022-11-30T18:47:25.519Z,3.31
2022-11-30T18:55:20.136Z,3.23
2022-11-30T18:57:50.257Z,3.20
2022-11-30T19:00:33.343Z,3.17
2022-11-30T19:03:22.388Z,3.14
2022-11-30T19:06:17.366Z,3.10
2022-11-30T19:12:52.331Z,3.01
2022-11-30T19:16:07.756Z,2.97
2022-11-30T19:26:30.171Z,2.92
2022-11-30T19:28:59.074Z,2.72
2022-11-30T19:36:29.168Z,2.57
2022-11-30T19:47:41.996Z,2.41
2022-11-30T20:23:17.569Z,1.85
2022-11-30T20:26:40.928Z,1.78
2022-11-30T20:34:48.229Z,1.62
2022-11-30T20:39:11.011Z,1.57
2022-11-30T20:40:46.446Z,1.52
2022-11-30T20:43:37.639Z,1.49
2022-11-30T20:46:39.248Z,1.47
2022-11-30T20:51:49.855Z,1.45
2022-11-30T20:53:57.905Z,1.34
2022-11-30T20:56:58.442Z,1.26
2022-11-30T21:00:17.887Z,1.15
2022-11-30T21:03:41.893Z,1.02
2022-11-30T21:11:01.668Z,0.84
2022-11-30T21:39:22.755Z,0.67
2022-11-30T21:49:43.671Z,0.80
2022-11-30T22:05:41.277Z,0.71
2022-11-30T22:14:14.493Z,0.59
2022-11-30T22:17:03.069Z,0.65
2022-11-30T22:17:16.241Z,0.56
2022-11-30T22:27:54.252Z,0.50
2022-11-30T22:32:14.047Z,0.50
2022-11-30T22:35:38.261Z,0.50
2022-11-30T22:42:07.768Z,0.48
2022-11-30T22:58:17.993Z,0.45
2022-11-30T23:00:53.926Z,0.40
2022-11-30T23:03:40.302Z,0.38
2022-11-30T23:06:50.326Z,0.35
2022-11-30T23:10:14.449Z,0.31
2022-11-30T23:18:08.958Z,0.30
2022-11-30T23:25:58.425Z,0.33
2022-11-30T23:29:47.583Z,0.35
2022-11-30T23:33:59.720Z,0.37
2022-11-30T23:37:13.628Z,0.38
